Time;durP1;ratioP1;P1;durP2;ratioP2;P2;SDS_P1;SDS_P2;PMS_P1;PMS_P2;Temp;Humidity;BMP_temperature;BMP_pressure;BME280_temperature;BME280_humidity;BME280_pressure;Samples;Min_cycle;Max_cycle;Signal;HPM_P1;HPM_P2
2021/06/09 00:02:16;;;;;;;8.03;5.23;;;;;;;17.65;69.60;101327.03;5013745;28;20696;-70
2021/06/09 00:04:45;;;;;;;8.90;5.67;;;;;;;17.57;70.03;101326.84;5000319;28;20212;-70
2021/06/09 00:07:13;;;;;;;9.20;5.50;;;;;;;17.54;69.68;101327.97;5005417;28;20290;-70
2021/06/09 00:09:41;;;;;;;10.80;5.97;;;;;;;17.51;69.91;101330.97;5007182;28;20192;-70
2021/06/09 00:12:09;;;;;;;9.50;5.40;;;;;;;17.45;70.47;101333.34;5010854;28;20203;-70
2021/06/09 00:14:37;;;;;;;9.83;6.07;;;;;;;17.39;70.48;101332.88;5006855;28;20234;-70
2021/06/09 00:17:04;;;;;;;11.60;5.87;;;;;;;17.36;70.74;101332.28;5009026;28;20214;-70
2021/06/09 00:19:32;;;;;;;10.37;5.97;;;;;;;17.31;70.40;101334.53;5006425;28;20215;-70
2021/06/09 00:22:01;;;;;;;10.87;6.33;;;;;;;17.28;70.43;101327.53;5006575;28;20694;-69
2021/06/09 00:24:29;;;;;;;9.73;6.60;;;;;;;17.23;71.25;101327.06;5007489;28;20215;-69
2021/06/09 00:26:57;;;;;;;7.77;5.60;;;;;;;17.05;70.90;101309.66;5005356;28;20238;-69
2021/06/09 00:29:25;;;;;;;9.67;5.80;;;;;;;17.22;70.63;101338.06;5008359;28;20211;-70
2021/06/09 00:31:52;;;;;;;8.23;5.70;;;;;;;17.11;69.83;101322.69;4999336;28;20215;-69
2021/06/09 00:34:20;;;;;;;9.33;5.67;;;;;;;17.06;69.58;101323.06;5005673;28;20201;-69
2021/06/09 00:36:47;;;;;;;10.17;5.57;;;;;;;17.17;69.48;101338.47;5008299;28;20211;-69
2021/06/09 00:39:16;;;;;;;10.03;5.77;;;;;;;17.12;68.38;101331.69;5015038;28;20683;-70
2021/06/09 00:41:44;;;;;;;7.80;4.90;;;;;;;17.12;68.23;101334.41;5004130;28;20559;-69
2021/06/09 00:44:12;;;;;;;8.57;5.37;;;;;;;16.69;68.00;101278.38;4999484;28;20219;-69
2021/06/09 00:46:42;;;;;;;8.90;5.87;;;;;;;16.79;68.59;101313.72;5010860;28;20198;-70
2021/06/09 00:49:10;;;;;;;10.17;5.47;;;;;;;16.83;69.41;101326.88;5005935;28;20650;-71
2021/06/09 00:51:38;;;;;;;9.60;5.93;;;;;;;16.80;70.05;101332.56;5007328;28;20480;-70
2021/06/09 00:54:06;;;;;;;11.23;6.03;;;;;;;16.79;70.08;101330.00;5009095;28;20195;-71
2021/06/09 00:56:38;;;;;;;10.97;5.67;;;;;;;16.77;69.73;101338.25;5008753;28;20254;-72
2021/06/09 00:59:07;;;;;;;7.70;5.40;;;;;;;16.66;69.49;101324.75;5003601;28;20650;-71
2021/06/09 01:01:35;;;;;;;8.03;5.57;;;;;;;16.70;69.81;101334.34;5007021;28;20202;-72
2021/06/09 01:04:05;;;;;;;8.57;5.67;;;;;;;16.64;69.78;101330.28;5006080;28;20802;-72
2021/06/09 01:06:32;;;;;;;10.50;6.30;;;;;;;16.61;69.98;101326.97;5007910;28;20655;-71
2021/06/09 01:09:00;;;;;;;8.57;5.60;;;;;;;16.57;69.81;101333.63;5004814;28;20203;-72
2021/06/09 01:11:29;;;;;;;8.60;5.80;;;;;;;16.34;69.82;101295.72;5008032;28;20270;-70
2021/06/09 01:13:58;;;;;;;8.40;5.57;;;;;;;16.42;70.25;101314.94;5006422;28;20223;-71
2021/06/09 01:16:26;;;;;;;9.70;5.70;;;;;;;16.35;70.57;101312.84;5004989;28;20218;-70
2021/06/09 01:18:54;;;;;;;10.47;5.93;;;;;;;16.37;70.01;101325.28;5003384;28;20199;-70
2021/06/09 01:21:26;;;;;;;9.27;5.90;;;;;;;16.36;69.98;101329.00;5003214;28;20191;-69
2021/06/09 01:23:55;;;;;;;9.97;5.90;;;;;;;16.17;69.46;101293.53;4999457;28;20226;-71
2021/06/09 01:26:25;;;;;;;8.47;5.57;;;;;;;16.31;69.21;101324.94;5006323;28;20621;-71
2021/06/09 01:28:53;;;;;;;12.83;6.37;;;;;;;16.23;69.64;101312.03;4999793;28;20269;-71
2021/06/09 01:31:22;;;;;;;8.33;5.77;;;;;;;16.22;69.29;101312.13;5004501;28;20200;-71
2021/06/09 01:33:51;;;;;;;11.07;5.53;;;;;;;16.26;69.23;101319.03;5006972;28;20203;-71
2021/06/09 01:36:21;;;;;;;7.63;4.73;;;;;;;15.99;68.86;101285.09;5006835;28;20670;-72
2021/06/09 01:38:51;;;;;;;11.83;5.47;;;;;;;16.04;68.65;101292.84;5005094;28;20207;-71
2021/06/09 01:41:21;;;;;;;8.03;5.30;;;;;;;16.12;69.10;101318.31;5008334;28;20218;-70
2021/06/09 01:43:51;;;;;;;7.70;5.03;;;;;;;15.97;70.75;101321.44;5002444;28;20713;-71
2021/06/09 01:46:19;;;;;;;9.03;5.23;;;;;;;15.90;70.72;101322.88;5010182;28;20223;-71
2021/06/09 01:48:48;;;;;;;7.70;5.13;;;;;;;15.86;70.64;101322.28;5014773;28;20290;-72
2021/06/09 01:51:16;;;;;;;9.23;5.50;;;;;;;15.84;69.90;101319.69;5004584;28;20675;-71
2021/06/09 01:53:44;;;;;;;9.37;5.90;;;;;;;15.80;70.09;101320.94;5006108;28;20191;-71
2021/06/09 01:56:14;;;;;;;7.40;5.20;;;;;;;15.84;70.24;101322.41;5007494;28;20205;-71
2021/06/09 01:58:42;;;;;;;7.77;5.03;;;;;;;15.80;70.26;101318.22;5006561;28;20689;-71
2021/06/09 02:01:11;;;;;;;10.00;5.13;;;;;;;15.78;70.31;101316.63;5014074;28;20238;-71
2021/06/09 02:03:39;;;;;;;7.83;5.33;;;;;;;15.77;69.73;101317.59;5008313;28;20223;-71
2021/06/09 02:06:07;;;;;;;9.87;5.13;;;;;;;15.77;69.43;101312.19;5009712;28;20211;-71
2021/06/09 02:08:35;;;;;;;8.43;5.27;;;;;;;15.34;69.34;101239.81;5007501;28;20658;-71
2021/06/09 02:11:03;;;;;;;9.97;5.50;;;;;;;15.79;68.46;101311.09;5010399;28;20424;-71
2021/06/09 02:13:32;;;;;;;8.23;4.90;;;;;;;15.64;68.70;101284.38;5005783;28;20569;-71
2021/06/09 02:16:01;;;;;;;9.30;6.03;;;;;;;15.69;68.82;101315.53;5013548;28;20210;-71
2021/06/09 02:18:29;;;;;;;8.50;5.40;;;;;;;15.65;69.48;101313.19;5011085;28;20191;-71
2021/06/09 02:20:58;;;;;;;8.50;5.60;;;;;;;15.45;70.05;101287.66;5012614;28;20211;-71
2021/06/09 02:23:28;;;;;;;8.67;5.17;;;;;;;15.56;70.67;101306.59;5009096;28;20203;-71
2021/06/09 02:25:57;;;;;;;10.13;6.10;;;;;;;15.54;70.40;101306.72;5010199;28;20313;-70
2021/06/09 02:28:27;;;;;;;9.47;5.47;;;;;;;15.52;70.74;101313.25;5016636;28;20215;-70
2021/06/09 02:30:57;;;;;;;9.37;5.13;;;;;;;15.50;71.13;101317.94;5009759;28;20196;-69
2021/06/09 02:33:25;;;;;;;10.93;5.53;;;;;;;15.48;71.01;101322.59;5002194;28;20214;-69
2021/06/09 02:35:55;;;;;;;10.00;6.10;;;;;;;15.52;70.72;101318.66;5006322;28;20215;-71
2021/06/09 02:38:24;;;;;;;10.10;5.90;;;;;;;15.56;70.77;101324.69;5008564;28;20206;-71
2021/06/09 02:40:53;;;;;;;11.90;6.17;;;;;;;15.59;70.85;101316.34;5000720;28;20214;-71
2021/06/09 02:43:22;;;;;;;11.17;5.87;;;;;;;15.27;70.78;101280.97;5007656;28;20199;-72
2021/06/09 02:45:53;;;;;;;10.57;6.23;;;;;;;15.50;70.98;101312.50;5010984;28;20296;-69
2021/06/09 02:48:26;;;;;;;8.50;5.50;;;;;;;15.54;70.88;101322.13;5007495;28;20199;-69
2021/06/09 02:50:54;;;;;;;9.80;5.67;;;;;;;15.62;70.57;101327.84;5009223;28;20556;-70
2021/06/09 02:53:25;;;;;;;9.77;6.13;;;;;;;15.64;70.72;101319.59;5008955;28;20559;-68
2021/06/09 02:56:08;;;;;;;8.20;5.13;;;;;;;15.61;71.13;101317.09;5008295;28;20209;-69
2021/06/09 02:58:47;;;;;;;9.17;5.77;;;;;;;15.66;71.05;101323.91;5006634;28;20422;-69
2021/06/09 03:01:27;;;;;;;8.67;5.57;;;;;;;15.69;69.91;101330.91;5007840;28;20706;-72
2021/06/09 03:04:04;;;;;;;8.67;5.47;;;;;;;15.72;69.37;101323.41;5004803;28;20231;-72
2021/06/09 03:06:39;;;;;;;8.37;5.70;;;;;;;15.70;70.16;101328.06;5009964;28;20195;-72
2021/06/09 03:09:11;;;;;;;9.10;6.10;;;;;;;15.59;72.03;101314.50;5008747;28;20194;-72
2021/06/09 03:11:46;;;;;;;9.63;5.60;;;;;;;15.57;72.21;101310.19;5009714;28;20229;-71
2021/06/09 03:15:09;;;;;;;8.80;5.47;;;;;;;15.60;71.05;101315.38;5007185;28;20217;-71
2021/06/09 03:17:19;;;;;;;11.40;6.47;;;;;;;15.70;70.88;101324.50;5007744;28;20662;-71
2021/06/09 03:19:57;;;;;;;8.83;5.50;;;;;;;15.70;70.85;101322.66;5003685;28;20254;-71
2021/06/09 03:22:30;;;;;;;8.27;5.40;;;;;;;15.76;70.19;101322.16;5008744;28;20218;-73
2021/06/09 03:24:59;;;;;;;9.50;5.73;;;;;;;15.71;70.72;101316.25;5002826;28;20463;-72
2021/06/09 03:27:32;;;;;;;8.27;5.20;;;;;;;15.78;71.07;101320.19;5006266;28;20239;-72
2021/06/09 03:30:05;;;;;;;8.37;5.33;;;;;;;15.73;71.14;101308.88;5008239;28;20317;-73
2021/06/09 03:32:37;;;;;;;9.90;5.87;;;;;;;15.81;71.73;101322.66;5006419;28;20677;-71
2021/06/09 03:35:14;;;;;;;9.90;6.03;;;;;;;15.82;71.29;101320.81;5001004;28;20218;-71
2021/06/09 03:37:47;;;;;;;8.73;5.50;;;;;;;15.92;71.01;101334.47;5009670;28;20195;-71
2021/06/09 03:40:19;;;;;;;10.60;5.73;;;;;;;15.90;72.16;101331.00;5006048;28;20701;-71
2021/06/09 03:42:50;;;;;;;8.83;5.50;;;;;;;15.82;73.23;101326.22;5001941;28;20297;-71
2021/06/09 03:45:18;;;;;;;10.90;6.30;;;;;;;15.79;73.19;101321.91;5003563;28;20219;-71
2021/06/09 03:47:47;;;;;;;10.30;6.20;;;;;;;15.87;72.92;101325.84;5008025;28;20567;-72
2021/06/09 03:50:18;;;;;;;9.50;5.93;;;;;;;15.90;72.96;101328.31;5008144;28;20214;-71
2021/06/09 03:52:47;;;;;;;9.83;6.13;;;;;;;15.87;73.26;101332.13;5007154;28;20602;-71
2021/06/09 03:55:20;;;;;;;9.57;5.73;;;;;;;15.94;73.16;101324.38;5006323;28;20598;-72
2021/06/09 03:57:50;;;;;;;8.53;5.37;;;;;;;15.79;72.36;101294.84;5002812;28;20210;-71
2021/06/09 04:00:19;;;;;;;10.83;6.00;;;;;;;16.07;72.19;101330.53;5005555;28;20195;-71
2021/06/09 04:02:47;;;;;;;8.70;5.80;;;;;;;16.12;71.92;101325.59;5008301;28;20740;-71
2021/06/09 04:05:17;;;;;;;10.80;6.37;;;;;;;16.15;71.03;101322.63;5006665;28;20596;-71
2021/06/09 04:07:47;;;;;;;9.63;5.80;;;;;;;16.25;70.75;101328.16;5008119;28;20203;-72
2021/06/09 04:10:17;;;;;;;15.90;6.27;;;;;;;16.28;71.61;101328.78;5006726;28;20563;-72
2021/06/09 04:12:46;;;;;;;9.40;5.97;;;;;;;16.29;71.99;101326.94;5006437;28;20278;-72
2021/06/09 04:15:14;;;;;;;9.93;6.23;;;;;;;16.19;73.17;101320.50;5011155;28;20191;-73
2021/06/09 04:17:44;;;;;;;10.53;6.03;;;;;;;16.28;72.84;101328.78;5008562;28;20191;-72
2021/06/09 04:20:13;;;;;;;11.13;6.17;;;;;;;16.29;73.19;101325.06;5007334;28;20700;-72
2021/06/09 04:22:42;;;;;;;10.10;6.20;;;;;;;16.05;73.93;101281.88;5003650;28;20313;-72
2021/06/09 04:25:11;;;;;;;11.03;6.17;;;;;;;16.28;75.11;101323.34;4999605;28;20710;-72
2021/06/09 04:27:43;;;;;;;12.20;6.97;;;;;;;16.36;74.53;101320.88;4998064;28;20232;-71
2021/06/09 04:30:14;;;;;;;11.37;6.37;;;;;;;16.36;74.90;101320.88;5001636;28;20246;-72
2021/06/09 04:32:50;;;;;;;10.57;6.90;;;;;;;16.46;74.79;101327.22;5003850;28;20214;-71
2021/06/09 04:35:19;;;;;;;10.00;6.43;;;;;;;16.52;74.36;101335.84;5002424;28;20219;-72
2021/06/09 04:37:49;;;;;;;9.97;6.30;;;;;;;16.63;73.92;101327.69;5006357;28;20689;-71
2021/06/09 04:40:19;;;;;;;9.77;5.80;;;;;;;16.74;73.53;101330.38;5002775;28;20290;-72
2021/06/09 04:42:48;;;;;;;8.83;6.10;;;;;;;16.80;74.34;101327.16;5001762;28;20208;-72
2021/06/09 04:45:17;;;;;;;9.97;5.77;;;;;;;16.74;74.97;101323.09;5001996;28;20226;-70
2021/06/09 04:47:45;;;;;;;7.27;5.60;;;;;;;16.68;74.57;101303.78;4999545;28;20602;-71
2021/06/09 04:50:17;;;;;;;9.97;5.73;;;;;;;16.90;74.55;101332.69;5003661;28;20615;-72
2021/06/09 04:52:45;;;;;;;10.53;5.83;;;;;;;16.97;75.05;101337.44;4999001;28;21088;-72
2021/06/09 04:55:15;;;;;;;9.40;5.90;;;;;;;17.06;74.26;101333.94;4999770;28;20678;-71
2021/06/09 04:57:43;;;;;;;10.37;5.97;;;;;;;16.97;74.45;101299.44;4999512;28;20199;-71
2021/06/09 05:00:14;;;;;;;8.53;5.37;;;;;;;17.27;74.43;101333.09;5014368;28;20223;-71
2021/06/09 05:02:44;;;;;;;8.60;5.47;;;;;;;17.32;74.18;101322.69;4998596;28;20222;-70
2021/06/09 05:05:12;;;;;;;12.63;6.13;;;;;;;17.27;75.12;101316.81;4999297;28;20227;-72
2021/06/09 05:07:40;;;;;;;10.83;5.57;;;;;;;17.44;75.17;101327.03;4996148;28;20199;-70
2021/06/09 05:10:09;;;;;;;10.07;5.50;;;;;;;17.25;74.70;101269.94;4997374;28;20460;-71
2021/06/09 05:12:42;;;;;;;8.30;5.73;;;;;;;17.70;76.19;101324.78;5000255;28;20199;-70
2021/06/09 05:15:12;;;;;;;13.27;4.50;;;;;;;17.80;74.77;101289.53;5003778;28;20399;-70
2021/06/09 05:17:44;;;;;;;6.73;4.00;;;;;;;17.96;74.65;101289.84;4999317;28;20191;-70
2021/06/09 05:20:21;;;;;;;8.53;4.20;;;;;;;17.94;73.62;101245.66;4996439;28;20923;-72
2021/06/09 05:22:53;;;;;;;10.53;4.10;;;;;;;18.66;71.18;101318.78;4999185;28;20222;-72
2021/06/09 05:25:22;;;;;;;6.13;4.40;;;;;;;18.99;70.99;101314.81;4996240;28;20702;-71
2021/06/09 05:27:54;;;;;;;9.83;4.13;;;;;;;19.33;71.51;101320.63;5001862;28;20249;-72
2021/06/09 05:30:23;;;;;;;6.90;3.73;;;;;;;19.57;70.91;101320.16;5005423;28;20233;-71
2021/06/09 05:32:53;;;;;;;7.80;4.10;;;;;;;19.94;70.62;101316.59;5006516;28;20211;-72
2021/06/09 05:35:22;;;;;;;5.50;3.77;;;;;;;20.23;69.75;101314.59;5004331;28;20203;-73
2021/06/09 05:37:51;;;;;;;5.50;3.60;;;;;;;20.61;68.86;101310.75;5006500;28;20627;-72
2021/06/09 05:40:20;;;;;;;4.90;3.60;;;;;;;20.92;67.46;101313.09;5008988;28;20203;-72
2021/06/09 05:42:49;;;;;;;5.57;3.50;;;;;;;21.24;65.50;101310.66;5007035;28;20247;-73
2021/06/09 05:45:26;;;;;;;3.63;3.30;;;;;;;21.55;64.06;101305.59;5005510;28;20230;-72
2021/06/09 05:47:55;;;;;;;9.40;3.73;;;;;;;21.69;63.92;101312.31;5001025;28;20253;-72
2021/06/09 05:50:26;;;;;;;5.27;3.43;;;;;;;22.14;60.65;101319.44;5008186;28;20768;-72
2021/06/09 05:52:57;;;;;;;5.30;3.60;;;;;;;22.45;59.33;101316.97;5007690;28;20202;-72
2021/06/09 05:55:31;;;;;;;6.00;3.53;;;;;;;22.73;58.65;101318.41;5007471;28;20282;-72
2021/06/09 05:58:02;;;;;;;3.97;3.23;;;;;;;22.96;58.03;101320.47;5006927;28;20725;-71
2021/06/09 06:00:54;;;;;;;4.27;3.53;;;;;;;23.06;58.21;101316.56;5003517;28;20234;-72
2021/06/09 06:03:23;;;;;;;7.37;3.30;;;;;;;23.35;58.50;101321.53;5007257;28;20685;-72
2021/06/09 06:05:55;;;;;;;3.07;2.77;;;;;;;23.58;58.85;101329.06;5005921;28;20765;-72
2021/06/09 06:08:24;;;;;;;7.47;3.60;;;;;;;23.85;57.43;101323.16;5009889;28;20199;-72
2021/06/09 06:10:51;;;;;;;6.70;3.03;;;;;;;23.98;56.07;101296.03;5006781;28;20202;-72
2021/06/09 06:13:21;;;;;;;4.43;2.90;;;;;;;24.44;55.74;101324.47;5007104;28;20574;-71
2021/06/09 06:15:54;;;;;;;6.90;2.95;;;;;;;24.56;54.50;101310.34;5006823;28;20303;-72
2021/06/09 06:18:30;;;;;;;6.97;3.47;;;;;;;24.80;53.92;101326.69;5010198;28;20829;-72
2021/06/09 06:20:58;;;;;;;4.63;3.08;;;;;;;25.04;54.07;101318.25;5009404;28;20306;-72
2021/06/09 06:23:26;;;;;;;3.90;3.28;;;;;;;25.22;53.78;101300.59;5004884;28;20738;-71
2021/06/09 06:26:08;;;;;;;8.75;3.50;;;;;;;25.33;52.97;101254.22;5004586;28;20337;-72
2021/06/09 06:28:38;;;;;;;4.78;3.00;;;;;;;25.97;51.15;101315.09;5006393;28;20222;-73
2021/06/09 06:31:11;;;;;;;4.00;3.05;;;;;;;26.53;49.71;101325.59;5007013;28;20199;-70
2021/06/09 06:33:41;;;;;;;4.32;2.92;;;;;;;26.82;49.16;101319.13;5007592;28;20211;-70
2021/06/09 06:36:10;;;;;;;7.35;3.10;;;;;;;27.09;47.52;101326.66;5008175;28;20245;-70
2021/06/09 06:38:41;;;;;;;5.68;2.75;;;;;;;27.14;47.55;101320.53;5006371;28;20215;-70
2021/06/09 06:41:10;;;;;;;6.43;3.10;;;;;;;27.04;47.46;101320.03;5000413;28;20207;-70
2021/06/09 06:43:39;;;;;;;5.75;3.05;;;;;;;26.93;47.24;101326.88;5008425;28;20233;-70
2021/06/09 06:46:11;;;;;;;5.20;3.00;;;;;;;26.81;47.75;101320.19;5006620;28;20235;-70
2021/06/09 06:48:40;;;;;;;6.32;3.58;;;;;;;26.71;47.71;101331.53;5004822;28;20741;-70
2021/06/09 06:51:10;;;;;;;4.28;3.38;;;;;;;26.58;47.74;101312.06;5004705;28;20578;-69
2021/06/09 06:53:41;;;;;;;4.63;3.20;;;;;;;26.87;46.39;101322.16;5007989;28;20223;-69
2021/06/09 06:56:10;;;;;;;8.00;3.47;;;;;;;26.57;46.58;101299.34;5005579;28;20199;-69
2021/06/09 06:58:39;;;;;;;6.40;3.40;;;;;;;26.55;47.67;101329.00;5007409;28;20200;-70
2021/06/09 07:01:08;;;;;;;4.90;2.90;;;;;;;26.64;47.23;101333.38;5005791;28;20968;-73
2021/06/09 07:03:37;;;;;;;5.07;2.85;;;;;;;26.56;47.03;101331.56;5007842;28;20257;-73
2021/06/09 07:06:07;;;;;;;5.07;2.58;;;;;;;26.22;47.72;101334.94;5011939;28;20221;-73
2021/06/09 07:08:37;;;;;;;3.47;2.60;;;;;;;26.21;48.16;101330.47;5013372;28;20241;-73
2021/06/09 07:11:05;;;;;;;5.43;2.88;;;;;;;26.09;48.41;101328.41;4999999;28;20577;-73
2021/06/09 07:13:34;;;;;;;5.07;2.70;;;;;;;25.91;49.23;101328.78;5007697;28;20199;-73
2021/06/09 07:16:05;;;;;;;4.03;2.20;;;;;;;25.86;48.87;101323.00;5006612;28;20741;-73
2021/06/09 07:18:36;;;;;;;3.67;2.50;;;;;;;25.77;48.95;101302.13;5005842;28;20234;-73
2021/06/09 07:21:04;;;;;;;5.07;2.60;;;;;;;26.14;48.04;101323.16;5007167;28;20289;-74
2021/06/09 07:23:33;;;;;;;2.65;2.33;;;;;;;26.16;48.26;101330.19;5004913;28;20191;-74
2021/06/09 07:26:01;;;;;;;4.40;2.85;;;;;;;26.23;47.33;101309.09;5007345;28;20215;-70
2021/06/09 07:28:30;;;;;;;4.53;2.40;;;;;;;26.38;47.11;101322.03;5001214;28;20232;-70
2021/06/09 07:30:58;;;;;;;4.03;2.25;;;;;;;26.07;47.44;101320.34;5006600;28;20199;-71
2021/06/09 07:33:26;;;;;;;5.43;2.78;;;;;;;26.27;46.60;101321.44;5005666;28;20602;-72
2021/06/09 07:35:57;;;;;;;3.47;2.58;;;;;;;26.19;46.34;101318.78;5006085;28;20207;-69
2021/06/09 07:38:29;;;;;;;6.30;2.72;;;;;;;26.03;47.60;101324.53;5005910;28;20206;-69
2021/06/09 07:40:59;;;;;;;4.70;2.70;;;;;;;26.15;47.79;101331.25;5005679;28;20671;-69
2021/06/09 07:43:31;;;;;;;3.13;2.50;;;;;;;26.27;47.20;101328.84;5003806;28;20635;-70
2021/06/09 07:46:00;;;;;;;5.20;2.65;;;;;;;26.22;46.38;101326.66;5008030;28;20690;-71
2021/06/09 07:48:29;;;;;;;2.47;2.28;;;;;;;26.56;45.23;101325.19;5007559;28;20207;-71
2021/06/09 07:51:02;;;;;;;4.65;2.50;;;;;;;26.55;44.97;101318.84;5001025;28;20218;-71
2021/06/09 07:53:31;;;;;;;3.35;2.60;;;;;;;26.33;44.93;101325.34;5008526;28;20195;-73
2021/06/09 07:56:00;;;;;;;2.70;2.45;;;;;;;26.79;44.62;101314.00;5006142;28;20202;-73
2021/06/09 07:58:29;;;;;;;3.38;2.40;;;;;;;26.74;44.82;101308.25;4997856;28;20602;-73
2021/06/09 08:00:58;;;;;;;6.63;2.45;;;;;;;26.63;44.41;101304.06;5009273;28;20206;-74
2021/06/09 08:03:27;;;;;;;4.47;2.25;;;;;;;26.54;45.33;101305.25;5004597;28;20227;-74
2021/06/09 08:05:56;;;;;;;6.95;2.40;;;;;;;26.28;46.05;101312.13;4997414;28;20211;-74
2021/06/09 08:08:26;;;;;;;3.70;2.10;;;;;;;26.07;46.50;101312.06;5004869;28;20234;-73
2021/06/09 08:10:53;;;;;;;3.03;2.50;;;;;;;26.50;45.12;101315.81;5003200;28;20207;-74
2021/06/09 08:13:22;;;;;;;3.03;2.80;;;;;;;26.74;44.46;101314.59;5007916;28;20282;-74
2021/06/09 08:15:52;;;;;;;5.43;3.20;;;;;;;26.67;44.17;101305.41;5006337;28;20768;-74
2021/06/09 08:18:20;;;;;;;4.97;2.63;;;;;;;26.75;44.14;101305.28;5006850;28;20215;-74
2021/06/09 08:21:04;;;;;;;4.35;2.67;;;;;;;26.85;42.21;101307.72;5016695;28;20518;-70
2021/06/09 08:23:34;;;;;;;3.33;2.25;;;;;;;26.76;44.20;101301.47;4999409;28;20210;-70
2021/06/09 08:26:04;;;;;;;2.95;2.25;;;;;;;27.02;42.60;101309.19;5004889;28;20208;-70
2021/06/09 08:28:35;;;;;;;3.38;2.47;;;;;;;27.08;42.91;101288.25;5005480;28;20231;-70
2021/06/09 08:31:04;;;;;;;4.07;2.60;;;;;;;27.30;42.64;101303.72;5004730;28;20282;-70
2021/06/09 08:33:35;;;;;;;2.78;2.10;;;;;;;27.37;41.99;101306.53;5002817;28;20721;-70
2021/06/09 08:36:03;;;;;;;3.15;2.70;;;;;;;27.47;42.78;101307.00;5006987;28;20191;-71
2021/06/09 08:38:31;;;;;;;6.50;2.95;;;;;;;27.48;42.26;101300.44;5015041;28;20211;-71
2021/06/09 08:41:00;;;;;;;4.18;2.85;;;;;;;27.75;42.29;101299.59;5006523;28;20195;-71
2021/06/09 08:43:28;;;;;;;6.78;3.28;;;;;;;27.92;41.71;101302.91;5007148;28;20582;-71
2021/06/09 08:45:56;;;;;;;3.30;3.00;;;;;;;28.09;42.19;101307.00;5007008;28;20811;-70
2021/06/09 08:48:25;;;;;;;7.68;3.10;;;;;;;28.04;41.87;101309.53;5007003;28;20211;-71
2021/06/09 08:50:55;;;;;;;5.10;3.10;;;;;;;28.12;42.13;101301.06;5007316;28;20195;-69
2021/06/09 08:53:24;;;;;;;9.23;3.40;;;;;;;28.21;41.87;101298.16;5005858;28;20207;-69
2021/06/09 08:55:52;;;;;;;5.78;3.17;;;;;;;28.18;41.98;101298.56;5006472;28;20226;-70
2021/06/09 08:58:21;;;;;;;3.95;2.90;;;;;;;28.13;41.75;101293.63;5004721;28;20282;-69
2021/06/09 09:00:49;;;;;;;5.00;2.53;;;;;;;28.53;41.80;101299.34;5001600;28;20250;-69
2021/06/09 09:03:17;;;;;;;3.92;2.50;;;;;;;28.82;41.55;101311.97;5007337;28;20203;-69
2021/06/09 09:05:44;;;;;;;4.88;2.80;;;;;;;29.02;41.62;101302.66;5005791;28;20203;-70
2021/06/09 09:08:12;;;;;;;4.97;2.60;;;;;;;29.25;40.34;101295.88;5006914;28;20195;-69
2021/06/09 09:10:40;;;;;;;5.50;2.65;;;;;;;29.66;39.46;101301.16;5002284;28;20570;-70
2021/06/09 09:13:07;;;;;;;3.00;2.78;;;;;;;29.95;38.64;101300.66;5005933;28;20286;-69
2021/06/09 09:15:36;;;;;;;7.03;3.78;;;;;;;30.33;37.95;101293.53;5007270;28;20580;-70
2021/06/09 09:18:07;;;;;;;4.53;2.88;;;;;;;30.37;37.54;101297.56;5000169;28;20210;-69
2021/06/09 09:20:37;;;;;;;5.78;2.80;;;;;;;30.36;37.59;101302.28;5007706;28;20207;-69
2021/06/09 09:23:18;;;;;;;2.85;2.65;;;;;;;30.59;37.19;101297.00;5005243;28;20564;-70
2021/06/09 09:25:46;;;;;;;3.10;2.40;;;;;;;30.30;37.27;101294.81;4994381;28;20199;-70
2021/06/09 09:28:24;;;;;;;2.50;2.30;;;;;;;29.65;37.65;101250.47;5004916;28;20199;-70
2021/06/09 09:31:05;;;;;;;4.07;2.50;;;;;;;30.11;36.75;101237.56;4998751;28;20203;-70
2021/06/09 09:33:34;;;;;;;3.53;3.20;;;;;;;30.83;37.30;101300.09;5005631;28;20219;-70
2021/06/09 09:36:20;;;;;;;5.00;2.83;;;;;;;30.98;36.94;101295.09;5006333;28;20207;-70
2021/06/09 09:38:48;;;;;;;5.03;2.72;;;;;;;31.31;36.93;101291.22;5000301;28;20213;-70
2021/06/09 09:41:18;;;;;;;4.43;2.58;;;;;;;31.02;36.94;101293.56;5005986;28;20207;-69
2021/06/09 09:43:53;;;;;;;3.47;2.72;;;;;;;31.30;36.21;101289.53;5005854;28;20204;-69
2021/06/09 09:46:23;;;;;;;4.22;2.60;;;;;;;31.00;36.61;101301.25;5006965;28;20230;-69
2021/06/09 09:49:06;;;;;;;5.32;2.83;;;;;;;30.95;36.43;101292.75;5005267;28;20200;-70
2021/06/09 09:51:37;;;;;;;3.42;2.70;;;;;;;31.00;37.04;101283.75;4996486;28;20344;-74
2021/06/09 09:54:07;;;;;;;4.47;2.90;;;;;;;31.00;36.82;101287.38;5003835;28;20214;-73
2021/06/09 09:56:37;;;;;;;3.03;2.70;;;;;;;30.89;36.67;101282.53;5007138;28;20196;-73
2021/06/09 09:59:06;;;;;;;4.78;2.70;;;;;;;31.26;36.97;101264.16;5003436;28;20686;-73
2021/06/09 10:01:38;;;;;;;3.60;2.83;;;;;;;31.72;33.74;101279.50;5003661;28;20191;-73
2021/06/09 10:04:08;;;;;;;3.03;2.60;;;;;;;31.43;35.93;101281.06;5005268;28;20214;-73
2021/06/09 10:06:38;;;;;;;3.35;2.80;;;;;;;31.66;35.24;101285.97;5006677;28;20227;-73
2021/06/09 10:09:12;;;;;;;4.35;2.90;;;;;;;31.87;33.32;101284.72;4993886;28;20200;-73
2021/06/09 10:11:44;;;;;;;3.40;2.55;;;;;;;31.90;34.48;101273.97;5005653;28;20203;-73
2021/06/09 10:14:20;;;;;;;3.83;2.72;;;;;;;31.97;34.14;101280.28;5004626;28;20219;-73
2021/06/09 10:16:57;;;;;;;4.15;2.63;;;;;;;31.82;33.81;101271.47;4990635;28;20226;-73
2021/06/09 10:19:28;;;;;;;3.67;2.60;;;;;;;31.26;35.13;101278.03;5004240;28;20199;-73
2021/06/09 10:22:00;;;;;;;5.05;2.67;;;;;;;31.22;35.75;101275.91;5011217;28;20206;-68
2021/06/09 10:24:28;;;;;;;3.30;2.60;;;;;;;31.19;36.08;101278.06;5008253;28;20705;-69
2021/06/09 10:27:00;;;;;;;3.55;3.17;;;;;;;31.28;36.35;101275.03;5008067;28;20239;-69
2021/06/09 10:29:30;;;;;;;4.72;2.63;;;;;;;31.10;35.52;101243.31;5006639;28;20211;-69
2021/06/09 10:32:03;;;;;;;7.85;3.08;;;;;;;31.58;36.23;101272.38;5008001;28;20225;-69
2021/06/09 10:34:34;;;;;;;3.00;2.60;;;;;;;31.53;35.53;101245.25;5007821;28;20805;-72
2021/06/09 10:37:04;;;;;;;3.00;2.70;;;;;;;31.70;35.76;101267.75;5009356;28;20195;-73
2021/06/09 10:39:35;;;;;;;4.60;2.42;;;;;;;31.63;34.94;101267.81;5009272;28;20203;-69
2021/06/09 10:42:07;;;;;;;3.92;2.33;;;;;;;31.22;36.45;101262.03;5008448;28;20753;-69
2021/06/09 10:44:36;;;;;;;5.70;2.67;;;;;;;31.35;36.58;101236.94;5006975;28;20725;-69
2021/06/09 10:47:11;;;;;;;5.03;2.60;;;;;;;31.88;35.99;101258.63;5003893;28;20230;-69
2021/06/09 10:49:41;;;;;;;4.53;2.85;;;;;;;32.13;34.79;101257.41;4987788;28;20258;-69
2021/06/09 10:52:09;;;;;;;5.85;2.78;;;;;;;31.75;35.26;101254.88;5006630;28;20191;-69
2021/06/09 10:54:36;;;;;;;4.53;2.75;;;;;;;31.73;35.71;101257.06;5008978;28;20199;-68
2021/06/09 10:57:06;;;;;;;7.32;2.65;;;;;;;31.45;36.75;101248.34;5008715;28;20199;-69
2021/06/09 10:59:34;;;;;;;2.60;2.40;;;;;;;31.78;36.57;101248.88;5008063;28;20666;-68
2021/06/09 11:02:08;;;;;;;4.03;2.40;;;;;;;32.00;35.74;101252.03;5008375;28;20754;-69
2021/06/09 11:04:41;;;;;;;2.97;2.67;;;;;;;31.50;36.14;101246.56;5008493;28;20241;-69
2021/06/09 11:07:29;;;;;;;2.58;2.38;;;;;;;32.00;35.55;101235.34;5009042;28;20708;-69
2021/06/09 11:09:58;;;;;;;4.97;2.67;;;;;;;31.98;35.78;101245.84;5001897;28;20218;-69
2021/06/09 11:12:27;;;;;;;2.70;2.35;;;;;;;32.13;35.17;101243.50;5006980;28;20286;-69
2021/06/09 11:14:56;;;;;;;5.70;2.30;;;;;;;32.28;35.31;101243.16;5008045;28;20516;-70
2021/06/09 11:17:44;;;;;;;2.50;2.10;;;;;;;32.13;34.53;101239.88;5007266;28;20619;-69
2021/06/09 11:20:20;;;;;;;2.10;2.00;;;;;;;32.32;35.14;101240.72;5011654;28;20549;-70
2021/06/09 11:23:01;;;;;;;4.05;2.25;;;;;;;31.87;34.87;101234.69;5010774;28;20210;-70
2021/06/09 11:25:31;;;;;;;3.00;2.25;;;;;;;31.86;35.47;101233.00;5006081;28;20575;-69
2021/06/09 11:28:01;;;;;;;4.38;2.47;;;;;;;32.12;35.84;101229.84;5007828;28;20230;-69
2021/06/09 11:30:37;;;;;;;2.70;2.10;;;;;;;31.61;36.35;101219.97;5006358;28;20215;-69
2021/06/09 11:33:08;;;;;;;2.10;1.98;;;;;;;31.42;35.40;101221.03;5007092;28;20210;-69
2021/06/09 11:35:48;;;;;;;2.10;1.83;;;;;;;31.65;35.71;101221.22;5000365;28;20204;-69
2021/06/09 11:38:21;;;;;;;2.10;1.90;;;;;;;31.97;35.45;101221.06;5002337;28;20479;-69
2021/06/09 11:40:52;;;;;;;3.20;2.00;;;;;;;31.91;35.44;101217.31;5008880;28;20213;-69